Time;durP1;ratioP1;P1;durP2;ratioP2;P2;SDS_P1;SDS_P2;PMS_P1;PMS_P2;Temp;Humidity;BMP_temperature;BMP_pressure;BME280_temperature;BME280_humidity;BME280_pressure;Samples;Min_cycle;Max_cycle;Signal;HPM_P1;HPM_P2
2022/04/17 00:00:00;;;;;;;2.45;2.08;;;;;;;8.20;44.06;101214.22;5111639;27;20016;-66
2022/04/17 00:02:26;;;;;;;2.45;1.60;;;;;;;8.29;44.59;101228.84;5108077;27;20034;-66
2022/04/17 00:04:52;;;;;;;2.38;1.65;;;;;;;8.29;44.38;101227.00;5108062;28;20024;-67
2022/04/17 00:07:19;;;;;;;2.15;1.50;;;;;;;8.28;44.58;101236.00;5111172;28;20015;-66
2022/04/17 00:09:44;;;;;;;3.30;1.90;;;;;;;8.22;44.68;101219.50;5124606;28;20059;-67
2022/04/17 00:12:11;;;;;;;2.13;1.70;;;;;;;8.24;44.41;101226.47;5113621;28;20027;-67
2022/04/17 00:14:37;;;;;;;2.58;1.20;;;;;;;8.24;43.46;101226.47;5115901;28;20038;-66
2022/04/17 00:17:03;;;;;;;2.55;1.85;;;;;;;8.15;43.84;101213.66;5124577;28;20754;-67
2022/04/17 00:19:29;;;;;;;3.28;1.40;;;;;;;8.17;43.48;101218.91;5109577;28;20673;-67
2022/04/17 00:21:54;;;;;;;4.43;1.80;;;;;;;8.18;43.64;101208.13;5111712;28;20055;-67
2022/04/17 00:24:20;;;;;;;2.85;1.42;;;;;;;8.14;43.47;101216.41;5118547;28;20476;-67
2022/04/17 00:26:45;;;;;;;1.92;1.60;;;;;;;8.12;42.86;101207.63;5121662;28;20114;-67
2022/04/17 00:29:11;;;;;;;2.38;1.33;;;;;;;8.10;43.53;101214.91;5116251;28;20043;-66
2022/04/17 00:31:36;;;;;;;4.70;1.20;;;;;;;8.06;43.11;101206.22;5116286;28;20032;-66
2022/04/17 00:34:02;;;;;;;1.67;1.42;;;;;;;8.02;42.93;101203.81;5114404;28;20039;-67
2022/04/17 00:36:27;;;;;;;2.13;1.30;;;;;;;7.96;42.75;101202.41;5117259;28;20111;-67
2022/04/17 00:38:53;;;;;;;1.48;1.20;;;;;;;7.95;43.05;101205.16;5116253;28;20031;-67
2022/04/17 00:41:18;;;;;;;2.70;1.65;;;;;;;7.91;42.94;101201.00;5112954;28;20326;-67
2022/04/17 00:43:48;;;;;;;2.58;1.50;;;;;;;7.86;42.91;101206.63;5092120;28;20572;-67
2022/04/17 00:46:15;;;;;;;1.98;1.50;;;;;;;7.83;42.78;101213.97;5110084;28;20027;-67
2022/04/17 00:48:40;;;;;;;2.15;1.75;;;;;;;7.78;42.80;101202.72;5100557;28;20064;-65
2022/04/17 00:51:07;;;;;;;1.73;1.45;;;;;;;7.71;42.42;101204.03;5121697;28;20109;-66
2022/04/17 00:53:34;;;;;;;2.45;1.58;;;;;;;7.68;42.83;101210.44;5121799;28;20078;-66
2022/04/17 00:56:00;;;;;;;1.90;1.40;;;;;;;7.60;42.98;101198.50;5117619;27;20035;-66
2022/04/17 00:58:28;;;;;;;2.63;1.85;;;;;;;7.66;43.10;101219.47;5117755;27;20098;-66
2022/04/17 01:00:53;;;;;;;4.43;1.67;;;;;;;7.60;42.85;101215.38;5119965;27;20019;-66
2022/04/17 01:03:19;;;;;;;2.47;1.50;;;;;;;7.60;42.19;101214.50;5118601;27;20042;-68
2022/04/17 01:05:46;;;;;;;4.00;1.40;;;;;;;7.58;42.64;101222.63;5118538;27;20408;-66
2022/04/17 01:08:13;;;;;;;1.77;1.40;;;;;;;7.54;42.32;101218.41;5124524;27;20042;-66
2022/04/17 01:10:39;;;;;;;4.88;1.42;;;;;;;7.51;42.46;101223.94;5114928;27;20023;-67
2022/04/17 01:13:08;;;;;;;2.38;1.20;;;;;;;7.49;43.26;101217.00;5115488;27;20050;-66
2022/04/17 01:15:34;;;;;;;2.63;1.40;;;;;;;7.42;42.54;101212.97;5101899;27;20392;-66
2022/04/17 01:18:00;;;;;;;3.03;1.48;;;;;;;7.39;42.73;101216.69;5121615;27;20095;-66
2022/04/17 01:20:25;;;;;;;2.67;1.38;;;;;;;7.40;42.36;101217.53;5123245;27;20477;-66
2022/04/17 01:26:56;;;;;;;2.28;1.65;;;;;;;7.39;43.00;101213.16;5100467;28;20059;-66
2022/04/17 01:28:26;;;;;;;1.90;1.52;;;;;;;7.37;43.69;101209.72;5121671;27;20081;-69
2022/04/17 01:30:55;;;;;;;3.92;1.40;;;;;;;7.30;43.29;101195.03;5124687;27;20118;-69
2022/04/17 01:33:21;;;;;;;1.73;1.38;;;;;;;7.35;43.35;101206.31;5127041;27;20499;-70
2022/04/17 01:35:47;;;;;;;1.55;1.33;;;;;;;7.34;43.17;101194.75;5123049;27;20023;-69
2022/04/17 01:38:12;;;;;;;1.90;1.40;;;;;;;7.41;42.81;101204.09;5123729;27;20043;-69
2022/04/17 01:40:38;;;;;;;2.78;1.70;;;;;;;7.35;43.13;101190.28;5117347;27;20015;-70
2022/04/17 01:43:12;;;;;;;2.80;1.83;;;;;;;7.38;42.91;101195.44;5115306;27;20472;-70
2022/04/17 01:45:38;;;;;;;1.90;1.30;;;;;;;7.38;42.94;101195.44;5119337;27;20030;-69
2022/04/17 01:48:04;;;;;;;1.58;1.15;;;;;;;7.32;43.14;101177.97;5121364;27;20020;-70
2022/04/17 01:50:30;;;;;;;1.63;1.50;;;;;;;7.37;43.17;101185.69;5119741;27;20020;-69
2022/04/17 01:53:00;;;;;;;2.25;1.50;;;;;;;7.37;43.83;101183.03;5121691;27;20034;-69
2022/04/17 01:55:29;;;;;;;1.75;1.42;;;;;;;7.34;43.21;101172.53;5114657;27;20037;-69
2022/04/17 01:57:54;;;;;;;1.27;1.17;;;;;;;7.35;43.33;101175.13;5119464;27;20027;-70
2022/04/17 02:00:20;;;;;;;3.05;2.05;;;;;;;7.30;43.51;101161.22;5098821;27;20019;-70
2022/04/17 02:02:45;;;;;;;2.00;1.80;;;;;;;7.32;43.31;101166.47;5119072;27;20019;-70
2022/04/17 02:05:11;;;;;;;1.67;1.58;;;;;;;7.31;43.79;101167.38;5125976;27;20251;-69
2022/04/17 02:07:37;;;;;;;3.15;1.70;;;;;;;7.30;44.10;101161.22;5121624;27;20027;-68
2022/04/17 02:10:05;;;;;;;1.35;1.25;;;;;;;7.30;43.69;101160.34;5124962;27;20058;-69
2022/04/17 02:12:33;;;;;;;2.78;1.60;;;;;;;7.31;43.46;101162.06;5116589;27;20485;-69
2022/04/17 02:14:59;;;;;;;2.70;1.48;;;;;;;7.25;43.82;101154.44;5122429;27;20349;-69
2022/04/17 02:17:25;;;;;;;2.08;1.40;;;;;;;7.23;43.29;101162.53;5118536;27;20024;-69
2022/04/17 02:19:51;;;;;;;1.83;1.60;;;;;;;7.18;43.54;101163.75;5116463;27;20023;-69
2022/04/17 02:22:17;;;;;;;2.13;1.50;;;;;;;7.18;43.93;101155.75;5122599;27;20042;-68
2022/04/17 02:24:42;;;;;;;1.70;1.42;;;;;;;7.14;43.63;101160.44;5123623;27;20031;-69
2022/04/17 02:27:08;;;;;;;3.95;1.23;;;;;;;7.10;44.14;101163.38;5117548;27;20072;-69
2022/04/17 02:29:33;;;;;;;3.42;1.63;;;;;;;7.07;43.06;101155.56;5125713;27;20027;-70
2022/04/17 02:31:58;;;;;;;4.18;1.58;;;;;;;6.94;44.07;101139.44;5123209;27;20098;-70
2022/04/17 02:34:24;;;;;;;1.75;1.50;;;;;;;6.98;44.20;101155.16;5131133;27;20023;-70
2022/04/17 02:36:49;;;;;;;1.77;1.40;;;;;;;6.94;43.59;101145.59;5123490;27;20053;-70
2022/04/17 02:39:15;;;;;;;1.75;1.42;;;;;;;6.95;44.08;101159.81;5118760;27;20027;-67
2022/04/17 02:41:40;;;;;;;2.97;1.60;;;;;;;6.88;44.14;101151.34;5117065;27;20043;-66
2022/04/17 02:44:06;;;;;;;2.50;1.70;;;;;;;6.87;43.80;101146.94;5117836;27;20031;-67
2022/04/17 02:49:15;;;;;;;2.40;1.80;;;;;;;6.74;44.41;101140.59;5123854;27;20381;-66
2022/04/17 02:51:41;;;;;;;2.47;1.50;;;;;;;6.75;44.38;101160.97;5122680;27;20035;-65
2022/04/17 02:54:06;;;;;;;2.25;1.50;;;;;;;6.79;44.81;101157.19;5117539;27;20031;-65
2022/04/17 02:56:32;;;;;;;4.47;2.08;;;;;;;6.74;44.72;101156.59;5115074;27;20497;-66
2022/04/17 02:58:57;;;;;;;2.10;1.63;;;;;;;6.72;44.95;101166.50;5113310;27;20545;-65
2022/04/17 03:06:51;;;;;;;3.63;1.73;;;;;;;6.57;45.65;101172.72;5118280;27;20034;-65
2022/04/17 03:09:18;;;;;;;2.80;1.83;;;;;;;6.54;45.65;101169.38;5117789;27;20481;-66
2022/04/17 03:11:43;;;;;;;2.70;2.00;;;;;;;6.46;45.50;101163.63;5116960;27;20066;-65
2022/04/17 03:14:09;;;;;;;3.53;2.20;;;;;;;6.46;45.35;101175.16;5117948;27;20047;-66
2022/04/17 03:16:35;;;;;;;4.88;2.00;;;;;;;6.42;45.91;101180.75;5116011;27;20020;-65
2022/04/17 03:19:00;;;;;;;2.58;2.05;;;;;;;6.38;45.79;101190.72;5112930;27;20036;-67
2022/04/17 03:21:27;;;;;;;2.92;1.80;;;;;;;6.35;45.96;101182.88;5121057;27;20031;-66
2022/04/17 03:23:52;;;;;;;4.70;2.70;;;;;;;6.31;45.76;101181.34;5114133;27;20491;-66
2022/04/17 03:26:18;;;;;;;4.07;2.00;;;;;;;6.26;46.42;101186.06;5116419;27;20027;-66
2022/04/17 03:28:43;;;;;;;2.80;1.90;;;;;;;6.25;45.75;101178.16;5113632;27;20083;-66
2022/04/17 03:31:08;;;;;;;3.45;1.60;;;;;;;6.24;45.69;101187.97;5115120;27;20023;-66
2022/04/17 03:33:34;;;;;;;2.67;1.92;;;;;;;6.19;46.34;101191.84;5096112;28;20019;-66
2022/04/17 03:35:59;;;;;;;3.20;1.67;;;;;;;6.18;45.57;101190.09;5119939;27;20372;-66
2022/04/17 03:38:25;;;;;;;3.15;1.70;;;;;;;6.15;45.79;101188.47;5117927;27;20031;-66
2022/04/17 03:40:50;;;;;;;7.03;1.98;;;;;;;6.14;45.68;101185.91;5108839;27;20530;-65
2022/04/17 03:43:16;;;;;;;4.32;2.38;;;;;;;6.12;46.03;101182.47;5117608;27;20129;-66
2022/04/17 03:45:46;;;;;;;2.50;1.80;;;;;;;6.09;46.00;101191.47;5114533;27;20403;-66
2022/04/17 03:48:13;;;;;;;1.63;1.20;;;;;;;6.04;46.01;101184.69;5115232;27;20031;-66
2022/04/17 03:50:38;;;;;;;2.53;1.63;;;;;;;6.00;46.41;101176.00;5124046;27;20422;-66
2022/04/17 03:53:04;;;;;;;5.03;1.60;;;;;;;5.88;46.22;101160.72;5121877;27;20027;-66
2022/04/17 03:55:29;;;;;;;3.63;2.00;;;;;;;5.88;46.43;101166.06;5113249;27;20046;-66
2022/04/17 03:57:54;;;;;;;4.22;2.30;;;;;;;5.99;46.68;101182.28;5108395;28;20069;-65
2022/04/17 04:00:20;;;;;;;3.70;2.20;;;;;;;5.99;46.49;101178.75;5108393;28;20083;-65
2022/04/17 04:02:49;;;;;;;3.50;2.13;;;;;;;5.94;46.68;101176.34;5097227;27;20023;-65
2022/04/17 04:05:14;;;;;;;2.33;2.10;;;;;;;5.84;46.92;101169.81;5095371;28;20032;-65
2022/04/17 04:07:40;;;;;;;3.78;1.92;;;;;;;5.89;47.11;101177.53;5123052;28;20034;-65
2022/04/17 04:10:08;;;;;;;2.17;1.70;;;;;;;5.88;47.58;101178.50;5110971;28;20038;-66
2022/04/17 04:12:37;;;;;;;3.72;1.90;;;;;;;5.86;47.70;101177.72;5114898;28;20179;-65
2022/04/17 04:15:04;;;;;;;2.22;2.00;;;;;;;5.89;47.67;101196.19;5114034;28;20038;-65
2022/04/17 04:17:29;;;;;;;2.85;1.95;;;;;;;5.87;47.46;101187.44;5118007;28;20038;-66
2022/04/17 04:19:55;;;;;;;2.20;1.45;;;;;;;5.87;47.62;101180.28;5121976;28;20015;-65
2022/04/17 04:22:21;;;;;;;3.15;2.03;;;;;;;5.85;47.43;101181.31;5093169;28;20031;-65
2022/04/17 04:24:46;;;;;;;2.45;1.50;;;;;;;5.85;47.63;101176.00;5095430;28;20034;-65
2022/04/17 04:29:56;;;;;;;2.60;1.63;;;;;;;5.82;47.86;101166.38;5112434;27;20062;-65
2022/04/17 04:32:21;;;;;;;3.13;1.98;;;;;;;5.91;47.68;101175.66;5118404;27;20042;-66
2022/04/17 04:34:47;;;;;;;2.40;1.90;;;;;;;5.91;47.41;101175.66;5123575;27;20485;-66
2022/04/17 04:37:14;;;;;;;3.22;1.70;;;;;;;5.94;47.50;101172.84;5124348;27;20033;-68
2022/04/17 04:39:40;;;;;;;3.47;2.00;;;;;;;6.01;47.47;101171.56;5100795;28;20197;-68
2022/04/17 04:42:05;;;;;;;2.03;1.65;;;;;;;6.06;47.37;101170.34;5122111;27;20039;-68
2022/04/17 04:44:31;;;;;;;2.55;1.80;;;;;;;6.09;47.01;101175.50;5123623;27;20743;-68
2022/04/17 04:46:56;;;;;;;2.55;1.73;;;;;;;6.21;46.84;101173.97;5131238;27;20487;-69
2022/04/17 04:49:32;;;;;;;2.22;1.67;;;;;;;6.32;46.21;101182.22;5131261;27;20111;-68
2022/04/17 04:52:03;;;;;;;3.55;1.80;;;;;;;6.38;46.30;101182.72;5122726;27;20018;-68
2022/04/17 04:54:29;;;;;;;2.80;1.90;;;;;;;6.49;46.41;101182.94;5128747;27;20513;-69
2022/04/17 04:56:55;;;;;;;4.72;1.67;;;;;;;6.60;45.93;101185.00;5121900;27;20381;-69
2022/04/17 04:59:21;;;;;;;2.67;1.75;;;;;;;6.67;46.33;101184.56;5106242;27;20023;-69
2022/04/17 05:01:51;;;;;;;2.72;1.70;;;;;;;6.74;45.64;101177.09;5128271;27;20346;-69
2022/04/17 05:04:17;;;;;;;3.55;2.42;;;;;;;6.81;45.71;101167.78;5121186;27;20401;-69
2022/04/17 05:06:43;;;;;;;5.00;2.00;;;;;;;6.96;45.41;101174.84;5107731;27;20054;-67
2022/04/17 05:09:09;;;;;;;4.47;2.22;;;;;;;7.11;44.93;101176.63;5112337;27;20030;-67
2022/04/17 05:11:37;;;;;;;3.45;1.52;;;;;;;7.21;44.06;101168.91;5099115;28;20026;-67
2022/04/17 05:14:04;;;;;;;1.85;1.63;;;;;;;7.31;44.41;101175.41;5106245;27;20134;-69
2022/04/17 05:16:30;;;;;;;3.60;2.00;;;;;;;7.42;44.48;101176.50;5122270;27;20027;-69
2022/04/17 05:19:19;;;;;;;3.65;1.77;;;;;;;7.50;44.44;101176.84;5115266;27;20084;-68
2022/04/17 05:21:41;;;;;;;1.90;1.40;;;;;;;7.65;43.47;101169.72;5122199;27;20091;-69
2022/04/17 05:24:06;;;;;;;2.50;1.88;;;;;;;7.77;43.42;101174.31;5110595;27;20054;-68
2022/04/17 05:26:32;;;;;;;3.50;1.90;;;;;;;7.87;43.62;101181.63;5104377;27;20028;-69
2022/04/17 05:29:02;;;;;;;2.95;2.15;;;;;;;7.95;43.28;101167.78;5100549;27;20051;-69
2022/04/17 05:31:27;;;;;;;2.33;1.85;;;;;;;8.08;43.72;101174.06;5120123;27;20063;-67
2022/04/17 05:33:53;;;;;;;3.00;1.85;;;;;;;8.21;43.00;101180.31;5126152;27;20035;-67
2022/04/17 05:36:18;;;;;;;2.50;1.75;;;;;;;8.34;42.25;101181.28;5122580;27;20225;-68
2022/04/17 05:38:44;;;;;;;3.15;1.88;;;;;;;8.46;42.09;101186.72;5119627;27;20076;-69
2022/04/17 05:41:10;;;;;;;1.83;1.35;;;;;;;8.62;41.80;101174.06;5124592;27;20023;-68
2022/04/17 05:43:38;;;;;;;2.53;1.67;;;;;;;8.74;41.63;101183.06;5124799;27;20134;-68
2022/04/17 05:46:04;;;;;;;2.10;1.70;;;;;;;8.79;41.21;101160.41;5117817;27;20031;-68
2022/04/17 05:48:29;;;;;;;2.50;1.63;;;;;;;9.02;41.41;101174.88;5102063;27;20435;-67
2022/04/17 05:50:55;;;;;;;1.70;1.42;;;;;;;9.11;41.63;101193.88;5121700;27;20475;-68
2022/04/17 05:53:20;;;;;;;3.03;2.10;;;;;;;9.26;40.95;101175.91;5104072;27;20077;-68
2022/04/17 05:55:46;;;;;;;1.50;1.40;;;;;;;9.37;41.08;101183.19;5122899;27;20023;-68
2022/04/17 05:58:12;;;;;;;2.08;1.83;;;;;;;9.48;40.16;101192.19;5122204;27;20468;-68
2022/04/17 06:00:39;;;;;;;2.33;2.13;;;;;;;9.61;40.32;101187.69;5115618;27;20114;-68
2022/04/17 06:03:05;;;;;;;2.35;1.65;;;;;;;9.74;40.76;101199.25;5123539;27;20100;-68
2022/04/17 06:05:30;;;;;;;2.13;1.45;;;;;;;9.85;40.22;101191.31;5100046;28;20035;-68
2022/04/17 06:07:56;;;;;;;2.72;1.90;;;;;;;9.98;40.18;101192.16;5107515;27;20019;-68
2022/04/17 06:10:21;;;;;;;3.70;2.17;;;;;;;10.11;40.27;101192.16;5118370;27;20019;-69
2022/04/17 06:12:46;;;;;;;2.80;2.00;;;;;;;10.35;39.47;101196.59;5118423;27;20128;-67
2022/04/17 06:15:12;;;;;;;2.50;2.00;;;;;;;10.32;39.49;101171.88;5117180;27;20800;-67
2022/04/17 06:17:42;;;;;;;3.03;2.30;;;;;;;10.55;38.99;101177.22;5113123;27;20039;-67
2022/04/17 06:20:10;;;;;;;1.85;1.55;;;;;;;10.69;39.68;101190.50;5114711;27;20031;-67
2022/04/17 06:22:36;;;;;;;2.70;1.80;;;;;;;10.82;39.51;101193.09;5115362;27;20047;-67
2022/04/17 06:25:07;;;;;;;2.72;2.05;;;;;;;10.98;39.60;101201.72;5118908;27;20050;-68
2022/04/17 06:27:40;;;;;;;2.55;1.95;;;;;;;11.10;39.39;101185.53;5117201;27;20505;-67
2022/04/17 06:30:07;;;;;;;7.03;2.17;;;;;;;11.26;39.29;101187.91;5117267;27;20030;-67
2022/04/17 06:32:33;;;;;;;3.08;2.00;;;;;;;11.41;38.73;101179.50;5096832;27;20126;-67
2022/04/17 06:34:59;;;;;;;3.03;1.92;;;;;;;11.54;38.33;101182.09;5116300;27;20098;-67
2022/04/17 06:37:24;;;;;;;2.30;1.88;;;;;;;11.55;38.51;101183.81;5116939;27;20722;-67
2022/04/17 06:39:50;;;;;;;3.00;1.98;;;;;;;11.73;38.46;101193.16;5119875;27;20085;-66
2022/04/17 06:42:15;;;;;;;2.33;1.77;;;;;;;11.77;37.88;101183.84;5118631;27;20066;-68
2022/04/17 06:44:40;;;;;;;1.98;1.73;;;;;;;11.90;37.82;101178.38;5117757;27;20574;-68
2022/04/17 06:47:06;;;;;;;3.75;2.00;;;;;;;12.09;37.77;101181.31;5106697;28;20092;-65
2022/04/17 06:49:32;;;;;;;3.92;1.75;;;;;;;12.06;37.41;101165.44;5114708;27;20047;-68
2022/04/17 06:51:58;;;;;;;3.65;1.98;;;;;;;12.35;37.38;101182.75;5097342;28;20397;-67
2022/04/17 06:54:23;;;;;;;2.28;1.60;;;;;;;12.39;37.78;101181.50;5120446;27;20031;-67
2022/04/17 06:56:48;;;;;;;2.35;1.90;;;;;;;12.47;37.75;101170.97;5120938;27;20031;-67
2022/04/17 06:59:14;;;;;;;5.38;1.85;;;;;;;12.68;37.61;101170.06;5121518;27;20039;-67
2022/04/17 07:01:39;;;;;;;2.65;1.73;;;;;;;12.82;36.83;101190.44;5104124;27;20023;-67
2022/04/17 07:04:04;;;;;;;7.93;2.10;;;;;;;12.88;37.50;101179.16;5113116;27;20035;-68
2022/04/17 07:06:30;;;;;;;3.30;1.60;;;;;;;13.15;37.18;101182.25;5124636;27;20103;-70
2022/04/17 07:08:55;;;;;;;3.80;1.80;;;;;;;13.29;37.17;101181.94;5124165;27;20528;-69
2022/04/17 07:11:23;;;;;;;3.70;2.10;;;;;;;13.44;36.59;101173.41;5107116;27;20025;-69
2022/04/17 07:13:48;;;;;;;3.10;1.58;;;;;;;13.57;36.42;101186.66;5117879;27;20038;-69
2022/04/17 07:16:14;;;;;;;3.38;1.90;;;;;;;13.65;35.74;101181.47;5125606;27;20027;-69
2022/04/17 07:18:39;;;;;;;3.33;1.80;;;;;;;13.74;35.52;101180.69;5115019;27;20035;-70
2022/04/17 07:21:05;;;;;;;7.95;2.85;;;;;;;13.82;35.11;101169.19;5118838;27;20023;-69
2022/04/17 07:23:31;;;;;;;4.38;2.45;;;;;;;13.94;34.83;101187.88;5121369;27;20039;-69
2022/04/17 07:25:57;;;;;;;4.65;1.98;;;;;;;13.94;35.62;101181.63;5119589;27;20027;-70
2022/04/17 07:28:23;;;;;;;3.78;1.90;;;;;;;14.04;33.54;101171.72;5122441;27;20043;-68
2022/04/17 07:30:49;;;;;;;7.70;2.30;;;;;;;13.97;34.62;101171.41;5114174;27;20031;-68
2022/04/17 07:33:17;;;;;;;3.70;1.50;;;;;;;14.12;33.82;101159.25;5117778;27;20051;-68
2022/04/17 07:35:43;;;;;;;6.93;1.88;;;;;;;14.09;32.95;101146.03;5111328;27;20067;-68
2022/04/17 07:38:09;;;;;;;1.88;1.40;;;;;;;14.21;32.62;101173.75;5118504;27;20086;-71
2022/04/17 07:40:35;;;;;;;3.40;1.10;;;;;;;14.18;31.80;101168.66;5101151;28;20106;-70
2022/04/17 07:43:03;;;;;;;7.90;1.35;;;;;;;14.22;31.57;101181.72;5119905;27;20484;-70
2022/04/17 07:45:30;;;;;;;4.10;1.33;;;;;;;14.26;31.42;101193.13;5117393;27;20038;-69
2022/04/17 07:47:55;;;;;;;20.45;2.00;;;;;;;14.21;30.38;101168.38;5118324;27;20081;-69
2022/04/17 07:50:23;;;;;;;12.15;1.33;;;;;;;14.13;30.96;101158.28;5111639;27;20067;-68
2022/04/17 07:52:50;;;;;;;4.25;1.33;;;;;;;14.12;30.51;101153.84;5118236;27;20035;-69
2022/04/17 07:55:16;;;;;;;11.07;2.15;;;;;;;13.98;30.95;101131.78;5121221;27;20023;-69
2022/04/17 08:00:27;;;;;;;16.60;1.77;;;;;;;14.25;30.75;101149.09;5120140;27;20417;-69
2022/04/17 08:02:55;;;;;;;13.43;1.98;;;;;;;14.37;31.21;101185.78;5122375;27;20038;-68
2022/04/17 08:05:23;;;;;;;3.25;1.58;;;;;;;14.53;31.14;101152.84;5121859;27;20034;-68
2022/04/17 08:07:52;;;;;;;5.05;2.08;;;;;;;14.63;31.53;101138.38;5121430;28;20023;-69
2022/04/17 08:10:18;;;;;;;11.73;2.28;;;;;;;14.82;31.68;101146.50;5117881;28;20031;-69
2022/04/17 08:12:44;;;;;;;13.45;2.05;;;;;;;15.11;31.40;101144.66;5114464;28;20027;-69
2022/04/17 08:15:09;;;;;;;6.38;1.65;;;;;;;15.32;31.08;101145.31;5110986;28;20402;-68
2022/04/17 08:17:35;;;;;;;12.05;1.98;;;;;;;15.58;30.52;101141.03;5114283;28;20036;-69
2022/04/17 08:20:01;;;;;;;8.82;1.70;;;;;;;16.03;30.07;101138.47;5126145;28;20046;-69
2022/04/17 08:22:26;;;;;;;4.03;1.85;;;;;;;16.70;29.43;101119.94;5100271;28;20029;-68
2022/04/17 08:24:52;;;;;;;12.32;1.73;;;;;;;17.58;27.70;101128.00;5119069;28;20435;-68
2022/04/17 08:27:17;;;;;;;14.48;2.53;;;;;;;19.04;25.13;101117.50;5120397;28;20093;-68
2022/04/17 08:29:42;;;;;;;12.30;1.80;;;;;;;19.81;25.02;101131.38;5118091;28;20101;-68
2022/04/17 08:32:09;;;;;;;13.20;1.58;;;;;;;20.84;23.77;101125.63;5117340;28;20042;-66
2022/04/17 08:34:34;;;;;;;9.88;2.05;;;;;;;21.70;22.52;101116.88;5114636;28;20027;-66
2022/04/17 08:37:03;;;;;;;16.58;2.15;;;;;;;22.14;21.88;101104.09;5120522;28;20096;-66
2022/04/17 08:39:28;;;;;;;13.63;2.00;;;;;;;22.78;21.47;101098.78;5120593;28;20018;-66
2022/04/17 08:41:56;;;;;;;5.97;1.98;;;;;;;23.59;20.76;101102.72;5114127;28;20023;-66
2022/04/17 08:44:22;;;;;;;4.05;1.48;;;;;;;23.82;20.70;101096.94;5099417;28;20532;-66
2022/04/17 08:46:48;;;;;;;18.10;2.28;;;;;;;24.13;20.27;101067.22;5123463;28;20023;-66
2022/04/17 08:49:13;;;;;;;12.65;1.90;;;;;;;24.36;19.74;101098.75;5120304;28;20042;-66
2022/04/17 08:51:40;;;;;;;18.90;2.88;;;;;;;24.63;19.56;101080.47;5114680;28;20035;-66
2022/04/17 08:54:06;;;;;;;12.65;2.17;;;;;;;24.12;20.04;101085.56;5103900;28;20091;-67
2022/04/17 08:56:32;;;;;;;21.70;3.00;;;;;;;23.56;20.38;101070.22;5096454;28;20441;-66
2022/04/17 08:58:58;;;;;;;11.35;2.42;;;;;;;23.01;21.17;101074.78;5094602;28;20119;-67
2022/04/17 09:01:24;;;;;;;17.52;2.35;;;;;;;22.49;21.33;101096.09;5116073;28;20148;-67
2022/04/17 09:03:49;;;;;;;16.83;2.28;;;;;;;21.75;22.31;101091.75;5119098;28;20027;-67
2022/04/17 09:06:20;;;;;;;13.95;2.00;;;;;;;20.96;22.50;101084.13;5111244;28;20073;-66
2022/04/17 09:09:04;;;;;;;10.57;1.95;;;;;;;20.14;23.79;101095.72;5113262;28;20769;-67
2022/04/17 09:11:32;;;;;;;14.93;2.47;;;;;;;19.93;23.99;101103.59;5113984;28;20035;-67
2022/04/17 09:13:59;;;;;;;8.45;1.77;;;;;;;19.01;25.27;101083.34;5119446;28;20028;-67
2022/04/17 09:16:35;;;;;;;12.68;2.38;;;;;;;18.61;25.11;101086.03;5103604;27;20031;-67
2022/04/17 09:19:18;;;;;;;12.05;2.50;;;;;;;18.47;25.21;101077.69;5121502;27;20372;-67
2022/04/17 09:21:44;;;;;;;13.00;2.40;;;;;;;18.05;26.07;101093.97;5118411;27;20046;-67
2022/04/17 09:24:15;;;;;;;9.50;2.40;;;;;;;17.60;26.83;101074.41;5126855;27;20174;-67
2022/04/17 09:26:57;;;;;;;7.32;2.15;;;;;;;17.38;27.07;101083.94;5115033;27;20027;-67
2022/04/17 09:29:35;;;;;;;7.63;2.10;;;;;;;17.03;27.69;101075.03;5123149;27;20079;-67
2022/04/17 09:32:08;;;;;;;5.72;1.92;;;;;;;16.66;28.71;101077.06;5121170;27;20489;-67
2022/04/17 09:34:49;;;;;;;8.57;2.45;;;;;;;16.59;28.41;101084.13;5120296;27;20029;-67
2022/04/17 09:37:27;;;;;;;8.18;2.60;;;;;;;16.44;28.31;101074.84;5118525;27;20039;-67
2022/04/17 09:39:53;;;;;;;7.25;2.50;;;;;;;16.14;29.21;101058.91;5101369;28;20024;-67
2022/04/17 09:42:29;;;;;;;9.65;2.80;;;;;;;16.03;29.07;101061.81;5116917;27;20035;-67
2022/04/17 09:44:54;;;;;;;8.73;2.17;;;;;;;15.98;29.64;101066.81;5124708;27;20038;-67
2022/04/17 09:47:27;;;;;;;11.50;2.10;;;;;;;15.85;29.90;101083.41;5120869;27;20030;-67
2022/04/17 09:49:55;;;;;;;8.93;1.95;;;;;;;15.70;29.58;101069.53;5120384;27;20031;-67
2022/04/17 09:52:23;;;;;;;6.03;2.10;;;;;;;15.49;29.83;101066.22;5115234;27;20100;-67
2022/04/17 09:54:49;;;;;;;10.20;2.22;;;;;;;15.40;29.73;101064.41;5117486;27;20565;-67
2022/04/17 09:57:26;;;;;;;9.98;2.50;;;;;;;15.34;30.15;101037.91;5121986;27;20392;-67
2022/04/17 09:59:53;;;;;;;12.48;2.50;;;;;;;15.14;30.31;101074.09;5127020;27;20024;-67
2022/04/17 10:02:20;;;;;;;7.78;2.08;;;;;;;14.97;30.29;101060.47;5099815;27;20039;-67
2022/04/17 10:04:45;;;;;;;13.98;2.50;;;;;;;14.82;30.44;101054.66;5112279;27;20028;-67
2022/04/17 10:07:11;;;;;;;9.70;2.38;;;;;;;14.84;30.32;101068.91;5118706;27;20035;-67
2022/04/17 10:09:38;;;;;;;3.03;2.25;;;;;;;14.64;30.70;101052.84;5125025;27;20444;-67
2022/04/17 10:12:05;;;;;;;7.68;2.30;;;;;;;14.49;31.59;101021.88;5116183;27;20027;-67
2022/04/17 10:14:31;;;;;;;9.85;1.88;;;;;;;14.41;30.86;101041.47;5118312;27;20555;-67
2022/04/17 10:16:57;;;;;;;6.95;2.47;;;;;;;14.45;31.10;101056.38;5106694;27;20047;-67
2022/04/17 10:19:24;;;;;;;7.90;2.25;;;;;;;14.44;31.18;101040.34;5108718;27;20037;-67
2022/04/17 10:21:51;;;;;;;4.40;2.20;;;;;;;14.32;31.92;101047.69;5118308;27;20504;-67
2022/04/17 10:24:23;;;;;;;7.32;2.70;;;;;;;14.26;31.62;101032.09;5117452;27;20050;-67
2022/04/17 10:26:51;;;;;;;6.75;1.90;;;;;;;14.16;32.91;101030.34;5098787;28;20031;-67
2022/04/17 10:29:20;;;;;;;3.42;2.17;;;;;;;14.12;32.93;101031.63;5125451;27;20473;-67
2022/04/17 10:32:07;;;;;;;5.72;2.10;;;;;;;14.07;32.95;101037.44;5115593;27;20026;-67
2022/04/17 10:34:54;;;;;;;4.95;1.83;;;;;;;14.05;32.52;101027.75;5122704;27;20050;-67
2022/04/17 10:37:40;;;;;;;6.57;2.03;;;;;;;14.05;32.80;101034.00;5113457;27;20054;-67
2022/04/17 10:40:10;;;;;;;7.05;2.05;;;;;;;13.92;32.70;101005.59;5109792;27;20035;-67
2022/04/17 10:42:52;;;;;;;2.97;2.08;;;;;;;13.93;32.05;101026.19;5118969;27;20023;-67
2022/04/17 10:45:18;;;;;;;7.25;2.20;;;;;;;13.90;32.20;101013.84;5117979;27;20043;-67
2022/04/17 10:48:05;;;;;;;3.60;2.03;;;;;;;13.98;32.40;101010.44;5118642;27;20156;-67
2022/04/17 10:50:41;;;;;;;4.18;2.33;;;;;;;13.95;32.78;101005.31;5118147;27;20458;-67
2022/04/17 10:53:25;;;;;;;6.90;2.13;;;;;;;13.90;34.05;101000.34;5118135;27;20080;-67
2022/04/17 10:56:14;;;;;;;6.20;2.03;;;;;;;13.95;33.07;101002.59;5098837;28;20040;-67
2022/04/17 10:58:48;;;;;;;12.07;2.28;;;;;;;13.99;33.29;101012.16;5120483;27;20027;-67
2022/04/17 11:01:15;;;;;;;3.17;1.98;;;;;;;13.93;33.35;101007.31;5116902;27;20389;-67
2022/04/17 11:03:53;;;;;;;7.07;1.85;;;;;;;13.91;33.86;101003.88;5094852;27;20473;-67
2022/04/17 11:06:30;;;;;;;7.03;1.58;;;;;;;13.87;33.54;100994.38;5113518;27;20587;-67
2022/04/17 11:09:13;;;;;;;5.50;1.70;;;;;;;13.99;34.04;100998.66;5115514;27;20043;-67
2022/04/17 11:11:45;;;;;;;5.05;1.70;;;;;;;14.04;33.00;100999.06;5110529;27;20066;-67
2022/04/17 11:14:26;;;;;;;3.85;1.85;;;;;;;14.03;33.31;100992.84;5096581;28;20027;-67
2022/04/17 11:16:51;;;;;;;4.82;1.38;;;;;;;14.12;33.09;100986.59;5100058;27;20175;-67
2022/04/17 11:19:20;;;;;;;3.97;1.88;;;;;;;14.16;31.86;100990.72;5124062;27;20463;-67
2022/04/17 11:21:47;;;;;;;4.38;1.80;;;;;;;14.15;32.06;100969.28;5114841;27;20111;-68
2022/04/17 11:24:13;;;;;;;4.10;1.55;;;;;;;14.06;32.70;100970.97;5101121;28;20535;-67
2022/04/17 11:26:53;;;;;;;3.70;1.92;;;;;;;14.16;31.92;100971.00;5100635;27;20177;-67
2022/04/17 11:29:35;;;;;;;4.75;1.75;;;;;;;14.08;31.89;100968.13;5123342;27;20042;-67
2022/04/17 11:32:01;;;;;;;3.97;2.10;;;;;;;14.01;32.39;100969.69;5113954;27;20027;-67
2022/04/17 11:34:52;;;;;;;4.57;1.40;;;;;;;14.06;32.22;100983.63;5116626;27;20473;-67
2022/04/17 11:37:27;;;;;;;3.08;1.75;;;;;;;13.93;32.54;100948.81;5115929;27;20102;-67
2022/04/17 11:39:57;;;;;;;3.28;1.90;;;;;;;14.04;31.52;100978.38;5127552;27;20476;-67
2022/04/17 11:42:27;;;;;;;5.10;1.70;;;;;;;13.90;31.92;100968.00;5117906;27;20019;-67
2022/04/17 11:44:53;;;;;;;4.10;1.80;;;;;;;13.91;32.71;100966.13;5118080;27;20029;-67
2022/04/17 11:47:20;;;;;;;4.50;1.88;;;;;;;14.00;32.22;100971.56;5123406;27;20035;-67